Station LIXA2 - Little Island, AK Image indicating link to RSS feed of recent meteorological observations for station LIXA2


Conditions at LIXA2 as of
(7:12 pm AKDT on 06/20/2024)
0312 GMT on 06/21/2024:
     

Click on the graph icon in the table below to see a time series plot of the last five days of that observation.

5-day plot - Wind Direction Wind Direction (WDIR): S ( 170 deg true )
5-day plot - Wind Speed Wind Speed (WSPD): 11 kts
5-day plot - Wind Gust Wind Gust (GST): 16 kts
5-day plot - Air Temperature Air Temperature (ATMP): 64.2 °F
5-day plot - Dew Point Dew Point (DEWP): 52.7 °F
5-day plot - Wind Speed at 10 Meters Wind Speed at 10 meters (WSPD10M): 14 kts
5-day plot - Wind Speed at 20 Meters Wind Speed at 20 meters (WSPD20M): 14 kts
5-day plot -  Wind Speed, Wind Gust and Atmospheric Pressure Combined plot of Wind Speed, Gust, and Air Pressure
Previous observations
TIME
(AKDT)
5-day plot - Wind Direction
WDIR
 
5-day plot - Wind Speed
WSPD
kts
5-day plot - Wind Gust
GST
kts
5-day plot - Wave Height
WVHT
ft
5-day plot - Dominant Wave Period
DPD
sec
5-day plot - Average Wave Period
APD
sec
5-day plot - Mean Wave Direction
MWD
 
5-day plot - Atmospheric Pressure
PRES
in
5-day plot - Pressure Tendency
PTDY
in
5-day plot - Air Temperature
ATMP
°F
5-day plot - Water Temperature
WTMP
°F
5-day plot - Dew Point
DEWP
°F
5-day plot - Salinity
SAL
psu
5-day plot - Visibility
VIS
nmi
5-day plot - Tide (above MLLW)
TIDE
ft
2024-06-20 07:02 pm S 13 21------ 64.2- 52.7---
2024-06-20 06:52 pm S 13 18------ 64.4- 53.4---
2024-06-20 06:42 pm S 14 20------ 63.9- 53.4---
2024-06-20 06:32 pm S 12 18------ 64.2- 53.4---
2024-06-20 06:22 pm S 13 19------ 64.0- 53.6---
2024-06-20 06:12 pm S 12 17------ 63.7- 53.8---
2024-06-20 06:02 pm S 10 16------ 64.2- 53.4---
2024-06-20 05:52 pm S 10 15------ 64.4- 53.6---
2024-06-20 05:42 pm S 9 15------ 64.4- 53.8---
2024-06-20 05:33 pm S 8 12------ 64.4- 53.8---
2024-06-20 05:22 pmSSE 9 13------ 64.2- 53.6---
2024-06-20 05:12 pm S 9 15------ 64.2- 54.0---
2024-06-20 05:02 pm S 10 14------ 63.7- 54.7---
2024-06-20 04:52 pm S 10 14------ 63.0- 54.7---
2024-06-20 04:42 pm S 9 13------ 63.0- 54.7---
2024-06-20 04:32 pm S 10 14------ 63.7- 53.8---
2024-06-20 04:22 pm S 9 15------ 63.7- 53.6---
2024-06-20 04:12 pm S 10 13------ 62.8- 53.8---
2024-06-20 03:52 pm S 8 12------ 62.4- 54.9---
2024-06-20 03:42 pmSSW 9 12------ 61.7- 55.9---
2024-06-20 03:32 pm S 8 12------ 61.9- 55.9---
2024-06-20 03:22 pmSSW 8 12------ 61.9- 56.1---
2024-06-20 03:12 pm S 7 11------ 63.1- 56.8---
2024-06-20 03:02 pm S 4 9------ 63.9- 56.5---
2024-06-20 02:52 pm S 5 8------ 62.8- 55.9---
2024-06-20 02:42 pm S 5 9------ 62.6- 56.1---
2024-06-20 02:32 pm S 6 10------ 61.7- 55.4---
2024-06-20 02:22 pm S 6 10------ 62.4- 55.9---
2024-06-20 02:12 pm S 6 9------ 61.9- 55.6---
2024-06-20 02:02 pm S 6 9------ 61.3- 55.2---
2024-06-20 01:52 pm S 6 10------ 61.9- 55.6---
2024-06-20 01:42 pm S 5 9------ 61.2- 55.0---
2024-06-20 01:32 pm S 6 10------ 61.3- 55.2---
2024-06-20 01:22 pm S 6 10------ 61.7- 55.6---
2024-06-20 01:12 pm S 5 9------ 62.1- 55.9---
2024-06-20 01:02 pm S 7 11------ 60.4- 54.7---
2024-06-20 12:52 pm S 7 11------ 60.3- 54.7---
2024-06-20 12:42 pm S 6 9------ 59.9- 54.3---
2024-06-20 12:32 pm S 5 8------ 60.3- 54.7---
2024-06-20 12:22 pmSSW 6 9------ 60.4- 54.9---
2024-06-20 12:12 pmSSW 5 8------ 60.6- 55.0---
2024-06-20 12:02 pm S 4 8------ 61.2- 55.2---
2024-06-20 11:52 amSSW 4 6------ 61.2- 55.2---
2024-06-20 11:42 amSSW 3 6------ 62.1- 55.9---
2024-06-20 11:32 amESE 3 5------ 61.2- 54.5---
2024-06-20 11:22 amESE 3 4------ 61.0- 54.5---
2024-06-20 11:12 am E 3 6------ 60.3- 54.1---
2024-06-20 11:02 am E 4 6------ 59.7- 53.8---
2024-06-20 10:52 amESE 3 6------ 59.5- 54.0---
2024-06-20 10:42 am S 5 8------ 58.3- 53.2---
2024-06-20 10:32 amSSW 6 9------ 59.0- 53.8---
2024-06-20 10:22 amSSW 5 8------ 58.8- 53.6---
2024-06-20 10:12 amSSW 6 9------ 57.9- 53.1---
2024-06-20 10:02 amSSW 6 10------ 57.7- 53.1---
2024-06-20 09:52 amSSW 6 10------ 57.4- 52.9---
2024-06-20 09:42 amSSW 6 9------ 56.8- 52.3---
2024-06-20 09:32 amSSW 6 9------ 56.8- 52.3---
2024-06-20 09:23 amSSW 6 10------ 57.0- 52.3---
2024-06-20 09:12 amSSW 6 9------ 56.8- 52.3---
2024-06-20 09:02 am S 6 10------ 56.5- 52.0---
2024-06-20 08:53 am S 8 12------ 56.3- 52.0---
2024-06-20 08:42 am S 9 12------ 55.9- 51.8---
2024-06-20 08:32 am S 9 12------ 55.8- 51.6---
2024-06-20 08:23 am S 10 12------ 55.6- 51.4---
2024-06-20 08:12 am S 10 13------ 55.4- 51.4---
2024-06-20 08:02 am S 10 13------ 55.0- 51.3---
2024-06-20 07:52 am S 10 14------ 55.2- 51.3---
2024-06-20 07:42 am S 10 14------ 55.2- 51.3---
2024-06-20 07:32 am S 9 12------ 54.9- 51.1---
2024-06-20 07:22 am S 10 14------ 54.9- 50.9---
2024-06-20 07:12 am S 11 14------ 54.7- 50.7---
2024-06-20 07:02 am S 11 15------ 54.7- 50.9---
2024-06-20 06:52 am S 11 14------ 54.7- 50.9---
2024-06-20 06:42 am S 10 14------ 54.7- 51.1---
2024-06-20 06:32 am S 10 14------ 54.7- 51.1---
2024-06-20 06:22 am S 9 13------ 54.9- 51.1---
2024-06-20 06:12 am S 9 12------ 54.9- 50.9---
2024-06-20 06:02 am S 8 12------ 54.9- 51.1---
2024-06-20 05:52 am S 8 11------ 54.9- 51.1---
2024-06-20 05:42 amSSW 6 11------ 54.3- 50.9---
2024-06-20 05:32 am SW 6 9------ 54.1- 50.7---
2024-06-20 05:22 amSSW 7 12------ 54.5- 51.1---
2024-06-20 05:12 am S 9 13------ 54.7- 51.3---
2024-06-20 05:02 am S 9 12------ 54.9- 51.1---
2024-06-20 04:52 am S 10 12------ 54.9- 50.9---
2024-06-20 04:42 am S 8 13------ 54.9- 50.7---
2024-06-20 04:32 am S 7 11------ 54.9- 51.1---
2024-06-20 04:22 amSSW 7 10------ 54.9- 50.9---
2024-06-20 04:12 am S 7 9------ 54.9- 50.7---
2024-06-20 04:02 am S 7 9------ 55.0- 50.9---
2024-06-20 03:52 am S 7 10------ 55.0- 51.1---
2024-06-20 03:42 amSSW 9 12------ 55.0- 50.9---
2024-06-20 03:32 amSSW 8 12------ 55.2- 51.1---
2024-06-20 03:22 am S 8 11------ 55.4- 51.1---
2024-06-20 03:12 am S 8 11------ 55.6- 50.9---
2024-06-20 03:02 am S 8 11------ 55.6- 51.1---
2024-06-20 02:52 am S 7 10------ 55.2- 51.1---
2024-06-20 02:42 am S 8 12------ 55.2- 50.9---
2024-06-20 02:32 amSSE 7 12------ 55.4- 50.9---
2024-06-20 02:22 amSSE 8 13------ 55.4- 50.9---
2024-06-20 02:12 amSSE 9 13------ 55.4- 50.9---
2024-06-20 02:02 am S 8 14------ 55.8- 51.3---
2024-06-20 01:52 amSSE 9 13------ 56.1- 51.4---
2024-06-20 01:42 am S 8 13------ 56.3- 51.4---
2024-06-20 01:32 amSSE 10 15------ 56.7- 51.6---
2024-06-20 01:22 am S 9 14------ 57.0- 52.2---
2024-06-20 01:12 am S 11 15------ 57.0- 52.2---
2024-06-20 01:02 am S 11 16------ 56.7- 52.0---
2024-06-20 12:52 am S 12 16------ 56.5- 51.6---
2024-06-20 12:42 am S 11 16------ 56.7- 51.6---
2024-06-20 12:32 am S 11 15------ 56.7- 52.0---
2024-06-20 12:22 am S 11 17------ 57.0- 52.2---
2024-06-20 12:13 am S 11 15------ 57.2- 52.0---
2024-06-20 12:02 am S 12 17------ 57.4- 52.2---
2024-06-19 11:52 pm S 10 14------ 57.6- 52.2---
2024-06-19 11:42 pmSSE 12 16------ 57.7- 52.0---
2024-06-19 11:32 pm S 12 19------ 57.4- 52.0---
2024-06-19 11:22 pm S 10 16------ 57.4- 52.3---
2024-06-19 11:12 pm S 10 15------ 57.4- 52.5---
2024-06-19 11:02 pm S 12 16------ 57.7- 52.7---
2024-06-19 10:52 pm S 13 17------ 57.9- 52.7---
2024-06-19 10:42 pm S 13 18------ 58.1- 52.7---
2024-06-19 10:32 pm S 12 16------ 58.3- 53.1---
2024-06-19 10:22 pm S 12 16------ 58.5- 53.1---
2024-06-19 10:12 pm S 12 16------ 59.0- 53.4---
2024-06-19 10:02 pm S 12 15------ 59.7- 53.6---
2024-06-19 09:52 pm S 11 15------ 60.6- 53.8---
2024-06-19 09:42 pm S 11 15------ 61.3- 53.8---
2024-06-19 09:32 pm S 10 14------ 61.7- 53.8---
2024-06-19 09:22 pm S 8 12------ 61.9- 53.6---
2024-06-19 09:12 pm S 11 16------ 61.3- 54.1---
2024-06-19 09:02 pm S 12 16------ 61.3- 54.3---
2024-06-19 08:52 pm S 12 16------ 61.5- 54.5---
2024-06-19 08:42 pmSSW 12 16------ 61.2- 54.5---
2024-06-19 08:32 pm S 12 16------ 61.9- 54.9---
2024-06-19 08:22 pm S 11 15------ 62.4- 55.0---
2024-06-19 08:12 pmSSW 10 14------ 63.3- 55.8---
2024-06-19 08:02 pm S 10 13------ 63.9- 55.4---
2024-06-19 07:53 pm S 11 14------ 63.7- 55.0---
2024-06-19 07:42 pm S 11 15------ 63.5- 54.9---
2024-06-19 07:32 pm S 11 14------ 63.3- 54.9---
2024-06-19 07:22 pm S 11 15------ 63.3- 54.7---
2024-06-19 07:12 pm S 11 15------ 63.5- 54.9---
2024-06-19 07:02 pm S 10 14------ 63.9- 54.7---
2024-06-19 06:52 pm S 11 15------ 63.9- 54.9---